Time;durP1;ratioP1;P1;durP2;ratioP2;P2;SDS_P1;SDS_P2;PMS_P1;PMS_P2;Temp;Humidity;BMP_temperature;BMP_pressure;BME280_temperature;BME280_humidity;BME280_pressure;Samples;Min_cycle;Max_cycle;Signal;HPM_P1;HPM_P2
2022/05/05 00:00:13;;;;;;;7.30;4.95;;;;;;;9.37;70.57;94266.41;5082781;28;20056;-74
2022/05/05 00:02:38;;;;;;;11.57;5.45;;;;;;;9.31;70.79;94272.91;5082737;28;20062;-74
2022/05/05 00:05:20;;;;;;;14.68;6.82;;;;;;;9.30;70.43;94276.66;5082728;28;20311;-74
2022/05/05 00:07:46;;;;;;;11.77;5.80;;;;;;;9.29;70.41;94283.06;5082748;28;20293;-74
2022/05/05 00:15:39;;;;;;;9.70;4.53;;;;;;;9.19;69.58;94270.72;5082756;28;20032;-74
2022/05/05 00:18:05;;;;;;;9.90;4.60;;;;;;;9.18;69.66;94279.78;5082555;28;20021;-74
2022/05/05 00:20:30;;;;;;;9.45;4.57;;;;;;;9.17;69.80;94264.13;5082608;28;20417;-74
2022/05/05 00:22:56;;;;;;;8.30;4.35;;;;;;;9.15;69.89;94269.72;5082644;28;20020;-74
2022/05/05 00:25:21;;;;;;;7.10;4.00;;;;;;;9.15;69.99;94260.97;5098394;28;20023;-74
2022/05/05 00:27:47;;;;;;;6.88;4.05;;;;;;;9.14;70.24;94264.69;5082419;28;20249;-74
2022/05/05 00:30:12;;;;;;;11.75;4.07;;;;;;;9.12;70.00;94259.69;5084104;28;20016;-74
2022/05/05 00:32:38;;;;;;;8.38;3.97;;;;;;;9.09;69.62;94268.25;5086549;28;20025;-74
2022/05/05 00:35:04;;;;;;;10.35;4.30;;;;;;;9.03;69.68;94262.22;5086576;28;20078;-74
2022/05/05 00:37:29;;;;;;;16.00;4.10;;;;;;;8.99;69.57;94282.50;5086300;28;20043;-74
2022/05/05 00:39:55;;;;;;;6.25;3.95;;;;;;;8.97;69.74;94271.38;5086281;28;20375;-74
2022/05/05 00:42:21;;;;;;;9.50;4.80;;;;;;;8.96;69.83;94280.44;5086286;28;20030;-74
2022/05/05 00:44:46;;;;;;;8.40;4.72;;;;;;;8.95;69.88;94273.53;5086150;28;20020;-74
2022/05/05 00:47:16;;;;;;;10.27;4.22;;;;;;;8.93;69.84;94273.03;5085881;28;20020;-74
2022/05/05 00:49:45;;;;;;;7.78;4.75;;;;;;;8.91;70.13;94275.19;5085951;28;20047;-75
2022/05/05 00:52:10;;;;;;;7.13;3.83;;;;;;;8.93;70.15;94272.25;5086115;28;20032;-75
2022/05/05 00:54:35;;;;;;;9.48;4.07;;;;;;;8.89;70.21;94282.66;5086112;28;20029;-74
2022/05/05 00:57:01;;;;;;;9.85;4.18;;;;;;;8.87;70.40;94279.50;5101806;28;20047;-74
2022/05/05 00:59:27;;;;;;;11.32;4.82;;;;;;;8.86;70.43;94266.53;5085837;28;20048;-74
2022/05/05 01:01:52;;;;;;;10.63;4.55;;;;;;;8.85;70.43;94276.38;5085740;28;20090;-74
2022/05/05 01:04:19;;;;;;;8.13;4.95;;;;;;;8.82;70.28;94272.41;5085929;28;20032;-74
2022/05/05 01:06:45;;;;;;;11.93;4.75;;;;;;;8.78;70.80;94273.31;5085667;28;20133;-74
2022/05/05 01:09:10;;;;;;;9.95;4.93;;;;;;;8.76;70.67;94272.81;5085745;28;20020;-74
2022/05/05 01:11:36;;;;;;;7.85;4.65;;;;;;;8.75;70.92;94266.72;5085530;28;20017;-74
2022/05/05 01:14:02;;;;;;;10.40;5.10;;;;;;;8.77;70.87;94266.41;5085864;28;20326;-74
2022/05/05 01:16:29;;;;;;;10.40;6.38;;;;;;;8.73;70.97;94266.22;5085655;28;20211;-74
2022/05/05 01:18:55;;;;;;;9.35;5.10;;;;;;;8.72;71.06;94277.91;5085500;28;20386;-73
2022/05/05 01:21:21;;;;;;;9.75;4.60;;;;;;;8.70;71.05;94263.34;5085571;28;20044;-74
2022/05/05 01:23:46;;;;;;;11.98;5.38;;;;;;;8.75;70.81;94271.22;5085470;28;20051;-73
2022/05/05 01:28:57;;;;;;;9.32;4.90;;;;;;;8.72;70.80;94283.22;5085474;28;20044;-73
2022/05/05 01:31:22;;;;;;;7.57;4.65;;;;;;;8.67;70.95;94279.84;5085305;28;20016;-73
2022/05/05 01:33:49;;;;;;;16.38;5.18;;;;;;;8.64;71.16;94275.91;5085404;28;20243;-73
2022/05/05 01:36:14;;;;;;;8.68;3.80;;;;;;;8.62;71.08;94278.84;5085185;28;20020;-73
2022/05/05 01:38:44;;;;;;;12.48;4.95;;;;;;;8.58;71.25;94272.53;5085422;28;20020;-73
2022/05/05 01:41:14;;;;;;;14.77;4.57;;;;;;;8.61;70.93;94281.81;5084476;28;20024;-73
2022/05/05 01:43:42;;;;;;;8.45;4.82;;;;;;;8.57;70.92;94276.28;5085186;28;20274;-73
2022/05/05 01:46:08;;;;;;;9.20;4.88;;;;;;;8.55;71.06;94278.44;5085049;28;20028;-74
2022/05/05 01:48:34;;;;;;;15.10;5.93;;;;;;;8.54;71.12;94278.72;5085197;28;20031;-73
2022/05/05 01:51:00;;;;;;;11.80;6.22;;;;;;;8.51;71.11;94280.09;5085042;28;20087;-73
2022/05/05 01:53:26;;;;;;;10.35;6.00;;;;;;;8.53;71.06;94280.59;5084906;28;20032;-74
2022/05/05 01:55:52;;;;;;;12.65;6.47;;;;;;;8.52;71.01;94271.03;5066934;28;20059;-73
2022/05/05 01:58:18;;;;;;;12.23;5.53;;;;;;;8.51;70.96;94280.09;5084673;28;20112;-73
2022/05/05 02:00:43;;;;;;;12.43;6.07;;;;;;;8.50;71.11;94280.38;5084722;28;20040;-73
2022/05/05 02:03:15;;;;;;;8.93;5.00;;;;;;;8.49;70.95;94282.25;5084753;28;20074;-73
2022/05/05 02:05:42;;;;;;;8.75;5.13;;;;;;;8.48;71.10;94295.81;5084661;28;20020;-74
2022/05/05 02:08:09;;;;;;;11.93;5.85;;;;;;;8.50;71.20;94291.00;5084562;28;20052;-73
2022/05/05 02:10:35;;;;;;;8.82;5.43;;;;;;;8.48;71.33;94285.97;5084654;28;20017;-74
2022/05/05 02:13:01;;;;;;;8.90;5.13;;;;;;;8.47;71.27;94287.06;5084489;28;20024;-74
2022/05/05 02:15:27;;;;;;;5.13;3.50;;;;;;;8.46;70.60;94290.78;5084552;28;20063;-74
2022/05/05 02:17:53;;;;;;;7.40;4.60;;;;;;;8.42;70.83;94295.09;5084565;28;20214;-74
2022/05/05 02:20:19;;;;;;;7.40;4.80;;;;;;;8.34;71.57;94288.53;5084383;28;20024;-74
2022/05/05 02:22:44;;;;;;;11.75;6.88;;;;;;;8.30;72.44;94298.16;5084489;28;20032;-74
2022/05/05 02:25:09;;;;;;;16.95;7.07;;;;;;;8.29;73.22;94293.94;5084321;28;20024;-74
2022/05/05 02:27:51;;;;;;;10.98;6.47;;;;;;;8.26;73.56;94309.66;5084433;28;20047;-74
2022/05/05 02:30:19;;;;;;;8.90;5.65;;;;;;;8.27;73.55;94304.06;5084419;28;20040;-74
2022/05/05 02:32:45;;;;;;;10.82;6.72;;;;;;;8.26;73.47;94296.38;5084391;28;20222;-74
2022/05/05 02:35:11;;;;;;;12.80;6.03;;;;;;;8.24;73.90;94308.09;5083934;28;20020;-74
2022/05/05 02:40:20;;;;;;;17.83;8.00;;;;;;;8.30;74.11;94297.38;5083910;28;20354;-75
2022/05/05 02:42:46;;;;;;;20.13;9.43;;;;;;;8.36;74.52;94296.22;5083903;28;20028;-74
2022/05/05 02:45:11;;;;;;;26.17;10.43;;;;;;;8.42;74.97;94303.06;5083719;28;20131;-74
2022/05/05 02:47:37;;;;;;;54.30;13.35;;;;;;;8.46;74.99;94300.63;5065996;28;20032;-74
2022/05/05 02:50:02;;;;;;;32.15;14.65;;;;;;;8.50;75.68;94302.41;5083905;28;20012;-74
2022/05/05 02:52:28;;;;;;;38.58;14.60;;;;;;;8.55;76.34;94307.66;5082959;28;20028;-74
2022/05/05 02:54:55;;;;;;;35.20;13.55;;;;;;;8.57;76.46;94312.72;5083799;28;20016;-74
2022/05/05 02:57:23;;;;;;;47.28;14.63;;;;;;;8.61;76.48;94309.19;5083421;28;20206;-74
2022/05/05 02:59:55;;;;;;;37.78;13.75;;;;;;;8.66;76.39;94307.53;5083548;28;20340;-74
2022/05/05 03:02:21;;;;;;;;;;;;;;;8.72;76.48;94319.66;5083856;28;20074;-74
2022/05/05 03:04:47;;;;;;;27.70;12.90;;;;;;;8.72;76.42;94319.66;5083476;28;19908;-74
2022/05/05 03:07:14;;;;;;;28.52;13.65;;;;;;;8.74;76.35;94330.78;5083382;28;20024;-74
2022/05/05 03:09:40;;;;;;;30.15;14.23;;;;;;;8.78;76.42;94331.78;5083590;28;20024;-74
2022/05/05 03:12:07;;;;;;;33.80;14.35;;;;;;;8.84;76.42;94341.25;5083534;28;20062;-74
2022/05/05 03:14:32;;;;;;;26.55;12.27;;;;;;;8.89;75.77;94338.50;5083367;28;20051;-74
2022/05/05 03:16:58;;;;;;;37.42;13.45;;;;;;;8.94;75.68;94345.63;5083339;28;20016;-74
2022/05/05 03:19:23;;;;;;;32.55;13.40;;;;;;;8.95;75.37;94347.97;5083367;28;20016;-73
2022/05/05 03:21:48;;;;;;;58.45;13.00;;;;;;;8.95;74.85;94347.97;5083016;28;20025;-74
2022/05/05 03:24:14;;;;;;;34.53;13.90;;;;;;;8.92;74.71;94342.47;5083301;28;20089;-74
2022/05/05 03:26:40;;;;;;;89.53;14.98;;;;;;;8.91;75.32;94340.88;5083210;28;20040;-73
2022/05/05 03:29:05;;;;;;;132.07;15.50;;;;;;;8.87;75.41;94338.00;5083234;28;20016;-74
2022/05/05 03:31:32;;;;;;;27.77;14.35;;;;;;;8.83;75.33;94334.34;5083082;28;20020;-74
2022/05/05 03:33:58;;;;;;;27.25;14.68;;;;;;;8.86;75.66;94331.13;5082996;28;20052;-74
2022/05/05 03:36:23;;;;;;;77.00;15.02;;;;;;;8.89;75.37;94329.75;5083166;28;20032;-73
2022/05/05 03:38:49;;;;;;;373.33;20.13;;;;;;;8.87;75.28;94338.00;5083144;28;20027;-74
2022/05/05 03:41:15;;;;;;;92.93;15.25;;;;;;;8.86;75.30;94331.13;5082990;28;20212;-74
2022/05/05 03:43:40;;;;;;;41.05;15.43;;;;;;;8.87;75.59;94338.00;5083070;28;20055;-74
2022/05/05 03:46:06;;;;;;;27.80;14.70;;;;;;;8.91;75.70;94338.22;5083095;28;20044;-74
2022/05/05 03:48:32;;;;;;;37.72;16.13;;;;;;;8.89;75.85;94343.81;5083204;28;20028;-74
2022/05/05 03:50:57;;;;;;;41.10;14.85;;;;;;;8.95;75.73;94347.19;5082866;28;20020;-74
2022/05/05 03:53:23;;;;;;;158.25;15.45;;;;;;;8.97;75.56;94353.00;5083247;28;20024;-74
2022/05/05 03:55:48;;;;;;;130.98;15.13;;;;;;;8.92;74.95;94353.88;5082909;28;20046;-73
2022/05/05 03:58:14;;;;;;;110.40;15.38;;;;;;;8.88;74.81;94352.88;5082597;28;20040;-74
2022/05/05 04:00:39;;;;;;;183.70;14.57;;;;;;;8.81;74.88;94352.44;5082770;28;20028;-74
2022/05/05 04:05:49;;;;;;;77.53;10.65;;;;;;;8.64;74.86;94347.66;5089330;28;20345;-74
2022/05/05 04:08:14;;;;;;;156.40;12.40;;;;;;;8.51;74.76;94351.03;5089555;28;20029;-74
2022/05/05 04:10:40;;;;;;;148.35;14.45;;;;;;;8.39;74.93;94352.22;5089674;28;20024;-74
2022/05/05 04:13:06;;;;;;;53.60;11.70;;;;;;;8.35;75.04;94358.41;5089354;28;20047;-74
2022/05/05 04:15:33;;;;;;;77.32;12.13;;;;;;;8.30;75.08;94361.91;5089304;28;20028;-74
2022/05/05 04:18:00;;;;;;;175.32;15.63;;;;;;;8.25;75.09;94375.25;5089384;28;20087;-74
2022/05/05 04:20:25;;;;;;;135.50;12.05;;;;;;;8.14;75.22;94363.97;5089067;28;20031;-73
2022/05/05 04:22:51;;;;;;;56.75;11.45;;;;;;;8.12;75.73;94382.06;5089003;28;20028;-74
2022/05/05 04:25:16;;;;;;;195.68;20.02;;;;;;;8.17;76.33;94384.66;5089270;28;20207;-74
2022/05/05 04:27:43;;;;;;;98.13;12.68;;;;;;;8.19;76.60;94395.78;5089417;28;20016;-73
2022/05/05 04:30:09;;;;;;;172.65;14.05;;;;;;;8.12;77.07;94387.38;5089358;28;20438;-74
2022/05/05 04:32:35;;;;;;;83.13;13.27;;;;;;;8.12;77.61;94382.06;5089354;28;20390;-73
2022/05/05 04:35:01;;;;;;;106.95;14.45;;;;;;;8.13;78.27;94388.94;5089061;28;20020;-74
2022/05/05 04:37:27;;;;;;;53.33;14.00;;;;;;;8.14;78.28;94390.53;5089089;28;20091;-74
2022/05/05 04:39:53;;;;;;;173.52;16.58;;;;;;;8.16;78.48;94399.00;5088871;28;20016;-74
2022/05/05 04:42:18;;;;;;;126.05;17.05;;;;;;;8.18;78.36;94390.72;5088811;28;20016;-74
2022/05/05 04:44:44;;;;;;;50.15;16.77;;;;;;;8.26;78.67;94391.97;5088937;28;20088;-74
2022/05/05 04:47:09;;;;;;;36.22;17.15;;;;;;;8.33;78.75;94387.13;5088909;28;20083;-73
2022/05/05 04:49:35;;;;;;;125.63;20.35;;;;;;;8.47;78.30;94385.38;5088894;28;20017;-74
2022/05/05 04:52:00;;;;;;;41.83;17.02;;;;;;;8.56;78.02;94386.28;5089067;28;20027;-74
2022/05/05 04:54:26;;;;;;;35.55;18.23;;;;;;;8.68;77.63;94382.44;5089012;28;20044;-74
2022/05/05 04:56:51;;;;;;;50.38;17.40;;;;;;;8.83;77.04;94382.19;5088907;28;20083;-74
2022/05/05 04:59:17;;;;;;;35.13;17.00;;;;;;;8.94;77.03;94391.59;5088762;28;20226;-74
2022/05/05 05:01:42;;;;;;;55.85;17.98;;;;;;;9.07;76.79;94389.28;5089040;28;20032;-74
2022/05/05 05:04:08;;;;;;;41.47;17.27;;;;;;;9.17;76.39;94389.13;5089104;28;20322;-74
2022/05/05 05:06:34;;;;;;;132.77;20.73;;;;;;;9.21;75.80;94382.94;5088655;28;20218;-74
2022/05/05 05:09:00;;;;;;;163.57;21.20;;;;;;;9.20;75.33;94391.22;5088383;28;20022;-74
2022/05/05 05:11:26;;;;;;;121.53;19.63;;;;;;;9.14;75.25;94385.19;5088841;28;20311;-74
2022/05/05 05:13:51;;;;;;;150.50;19.95;;;;;;;9.03;75.13;94400.50;5088690;28;20038;-74
2022/05/05 05:16:17;;;;;;;147.10;19.55;;;;;;;8.98;75.37;94394.47;5085895;28;20021;-73
2022/05/05 05:18:42;;;;;;;98.72;20.45;;;;;;;8.88;75.54;94395.41;5085688;28;20070;-74
2022/05/05 05:21:08;;;;;;;88.97;19.45;;;;;;;8.89;75.83;94404.94;5085770;28;20341;-74
2022/05/05 05:23:33;;;;;;;38.58;18.83;;;;;;;8.93;76.09;94390.00;5085572;28;20051;-74
2022/05/05 05:25:59;;;;;;;37.10;20.13;;;;;;;9.07;76.19;94402.56;5085495;28;20062;-74
2022/05/05 05:28:25;;;;;;;67.03;20.30;;;;;;;9.24;75.78;94395.66;5085484;28;20027;-73
2022/05/05 05:30:51;;;;;;;35.75;21.17;;;;;;;9.36;75.22;94392.53;5084932;28;20031;-73
2022/05/05 05:33:17;;;;;;;42.72;20.20;;;;;;;9.47;74.71;94403.00;5085318;28;20027;-75
2022/05/05 05:35:44;;;;;;;34.65;18.58;;;;;;;9.61;73.06;94409.94;5085518;28;20344;-74
2022/05/05 05:38:11;;;;;;;36.28;20.05;;;;;;;9.71;73.49;94408.97;5085429;28;20070;-74
2022/05/05 05:40:36;;;;;;;44.75;19.95;;;;;;;9.90;73.37;94408.88;5085108;28;20043;-73
2022/05/05 05:43:03;;;;;;;35.10;20.10;;;;;;;10.07;72.68;94410.16;5084628;28;20563;-74
2022/05/05 05:45:28;;;;;;;40.38;22.30;;;;;;;10.23;72.75;94414.91;5085157;28;20035;-74
2022/05/05 05:47:53;;;;;;;41.80;21.90;;;;;;;10.41;72.25;94415.91;5085108;28;20032;-74
2022/05/05 05:50:19;;;;;;;48.60;22.15;;;;;;;10.59;71.44;94414.22;5085068;28;20211;-74
2022/05/05 05:52:45;;;;;;;38.90;20.52;;;;;;;10.82;70.74;94419.59;5084805;28;20031;-74
2022/05/05 05:55:10;;;;;;;45.38;21.63;;;;;;;11.00;68.92;94415.19;5084956;28;20025;-74
2022/05/05 05:57:36;;;;;;;41.80;21.00;;;;;;;11.10;68.76;94417.63;5084758;28;20099;-74
2022/05/05 06:00:04;;;;;;;38.22;20.35;;;;;;;11.26;68.46;94417.28;5084723;28;20306;-74
2022/05/05 06:05:15;;;;;;;37.78;20.15;;;;;;;11.61;66.94;94408.41;5084550;28;20044;-74
2022/05/05 06:07:41;;;;;;;41.70;21.15;;;;;;;11.77;66.50;94408.00;5066571;28;20218;-74
2022/05/05 06:10:07;;;;;;;36.78;21.83;;;;;;;11.87;66.08;94409.63;5084552;28;20047;-74
2022/05/05 06:12:32;;;;;;;42.38;20.73;;;;;;;12.00;65.94;94414.13;5084532;28;20405;-73
2022/05/05 06:14:58;;;;;;;40.80;22.25;;;;;;;12.14;65.16;94424.72;5084589;28;20024;-74
2022/05/05 06:17:23;;;;;;;42.28;23.17;;;;;;;12.34;65.09;94415.34;5084560;28;20025;-74
2022/05/05 06:19:48;;;;;;;42.03;24.13;;;;;;;12.37;64.39;94401.34;5084161;28;20059;-72
2022/05/05 06:22:14;;;;;;;40.80;22.42;;;;;;;12.37;64.33;94407.47;5084111;28;20028;-75
2022/05/05 06:24:39;;;;;;;44.47;23.67;;;;;;;12.39;64.23;94412.53;5084417;28;20083;-75
2022/05/05 06:27:05;;;;;;;40.40;22.13;;;;;;;12.36;63.73;94410.47;5082995;28;20310;-72
2022/05/05 06:29:30;;;;;;;45.00;24.45;;;;;;;12.29;64.64;94418.16;5084111;28;20023;-74
2022/05/05 06:31:56;;;;;;;50.00;27.85;;;;;;;12.27;65.07;94421.13;5083987;28;20020;-72
2022/05/05 06:34:21;;;;;;;43.28;24.63;;;;;;;12.44;64.88;94415.06;5084030;28;20398;-73
2022/05/05 06:36:47;;;;;;;44.10;23.08;;;;;;;12.61;64.53;94417.75;5084019;28;20025;-73
2022/05/05 06:39:13;;;;;;;45.47;22.77;;;;;;;12.76;64.18;94418.41;5083955;28;20027;-72
2022/05/05 06:41:39;;;;;;;41.47;23.73;;;;;;;12.88;63.33;94421.25;5083698;28;20021;-73
2022/05/05 06:44:04;;;;;;;47.97;25.77;;;;;;;12.93;63.18;94413.09;5083439;28;20051;-73
2022/05/05 06:46:30;;;;;;;54.15;24.95;;;;;;;13.03;63.41;94409.31;5083706;28;20356;-71
2022/05/05 06:48:55;;;;;;;47.92;27.10;;;;;;;13.24;63.92;94412.16;5083692;28;20008;-71
2022/05/05 06:51:20;;;;;;;41.25;22.38;;;;;;;13.40;62.36;94415.94;5083623;28;20039;-70
2022/05/05 06:53:46;;;;;;;44.05;25.02;;;;;;;13.55;61.55;94416.56;5065801;28;20093;-74
2022/05/05 06:56:11;;;;;;;39.20;23.92;;;;;;;13.58;60.87;94422.06;5083600;28;20023;-73
2022/05/05 06:58:37;;;;;;;42.28;24.48;;;;;;;13.57;61.25;94427.72;5083307;28;20048;-73
2022/05/05 07:03:46;;;;;;;48.15;26.00;;;;;;;13.17;61.27;94419.88;5083317;28;20115;-72
2022/05/05 07:06:12;;;;;;;48.15;25.73;;;;;;;12.84;62.58;94420.31;5083279;28;20024;-73
2022/05/05 07:11:22;;;;;;;58.20;25.55;;;;;;;12.13;65.27;94428.47;5083663;28;20062;-77
2022/05/05 07:13:48;;;;;;;46.90;24.83;;;;;;;12.02;68.11;94422.59;5083880;28;20103;-76
2022/05/05 07:16:13;;;;;;;43.25;24.08;;;;;;;12.20;66.67;94440.28;5083561;28;20270;-77
2022/05/05 07:18:39;;;;;;;49.42;25.42;;;;;;;12.13;66.41;94426.59;5084295;28;20024;-72
2022/05/05 07:21:04;;;;;;;40.15;24.00;;;;;;;12.14;66.45;94436.19;5083395;28;20326;-72
2022/05/05 07:23:30;;;;;;;52.10;25.25;;;;;;;12.14;66.27;94425.50;5083067;28;20229;-72
2022/05/05 07:25:55;;;;;;;46.47;23.33;;;;;;;12.22;66.38;94438.09;5083189;28;20141;-70
2022/05/05 07:28:21;;;;;;;43.65;23.77;;;;;;;12.24;66.13;94440.47;5083019;28;20070;-71
2022/05/05 07:30:47;;;;;;;53.75;25.15;;;;;;;12.28;66.05;94433.41;5083077;28;20111;-72
2022/05/05 07:33:12;;;;;;;44.45;24.75;;;;;;;12.31;66.54;94421.31;5083113;28;20370;-71
2022/05/05 07:35:38;;;;;;;51.67;24.17;;;;;;;12.42;66.49;94433.28;5082776;28;20029;-71
2022/05/05 07:38:04;;;;;;;36.95;22.45;;;;;;;12.60;66.01;94420.75;5082306;28;20027;-71
2022/05/05 07:40:30;;;;;;;39.80;20.50;;;;;;;12.78;65.39;94429.59;5082381;28;20040;-71
2022/05/05 07:42:55;;;;;;;31.42;18.42;;;;;;;12.95;64.73;94426.94;5082799;28;20024;-71
2022/05/05 07:45:21;;;;;;;33.47;17.58;;;;;;;13.10;63.04;94424.91;5082839;28;20096;-71
2022/05/05 07:47:46;;;;;;;28.58;17.33;;;;;;;13.22;62.58;94430.41;5082579;28;20265;-71
2022/05/05 07:50:12;;;;;;;31.23;17.85;;;;;;;13.32;62.44;94432.81;5083014;28;20073;-72
2022/05/05 07:52:37;;;;;;;38.42;18.70;;;;;;;13.44;62.18;94432.94;5082917;28;20024;-71
2022/05/05 07:55:18;;;;;;;32.70;18.35;;;;;;;13.53;60.75;94437.50;5082795;28;20028;-73
2022/05/05 07:57:47;;;;;;;32.42;16.80;;;;;;;13.63;60.71;94437.19;5064694;28;20051;-73
2022/05/05 08:00:13;;;;;;;26.77;14.88;;;;;;;13.76;60.01;94438.91;5082772;28;20029;-72
2022/05/05 08:02:39;;;;;;;35.72;16.73;;;;;;;13.82;59.28;94436.84;5082455;28;20027;-72
2022/05/05 08:05:07;;;;;;;31.20;17.60;;;;;;;13.89;60.65;94431.75;5082775;28;20044;-73
2022/05/05 08:07:32;;;;;;;42.78;18.52;;;;;;;13.97;60.36;94448.94;5082861;28;20342;-71
2022/05/05 08:09:58;;;;;;;35.28;17.85;;;;;;;13.99;60.38;94452.09;5082394;28;20025;-72
2022/05/05 08:12:23;;;;;;;29.85;16.38;;;;;;;14.10;59.72;94445.25;5082538;28;20227;-71
2022/05/05 08:14:48;;;;;;;29.20;15.88;;;;;;;14.14;58.89;94448.88;5082503;28;20052;-71
2022/05/05 08:17:14;;;;;;;29.15;16.67;;;;;;;14.17;59.60;94448.25;5065005;28;20272;-71
2022/05/05 08:19:40;;;;;;;30.02;14.23;;;;;;;14.25;58.39;94450.09;5082846;28;20031;-72
2022/05/05 08:22:05;;;;;;;30.20;15.75;;;;;;;14.25;57.82;94449.31;5082788;28;20033;-71
2022/05/05 08:30:03;;;;;;;31.08;16.63;;;;;;;14.48;58.01;94447.16;5082640;28;20341;-71
2022/05/05 08:32:29;;;;;;;33.70;15.60;;;;;;;14.63;57.45;94438.59;5082609;28;20036;-70
2022/05/05 08:34:54;;;;;;;32.45;15.60;;;;;;;14.82;57.73;94440.84;5082636;28;20061;-71
2022/05/05 08:37:20;;;;;;;26.38;14.40;;;;;;;14.99;57.65;94445.31;5082684;28;20028;-71
2022/05/05 08:39:45;;;;;;;24.23;14.05;;;;;;;15.16;56.42;94440.94;5082319;28;20017;-70
2022/05/05 08:42:11;;;;;;;23.30;14.60;;;;;;;15.29;55.75;94441.81;5082478;28;20017;-71
2022/05/05 08:44:37;;;;;;;26.20;14.27;;;;;;;15.38;54.83;94440.59;5082775;28;20017;-70
2022/05/05 08:47:05;;;;;;;29.42;14.18;;;;;;;15.45;54.53;94440.09;5082177;28;20192;-72
2022/05/05 08:49:31;;;;;;;25.67;11.90;;;;;;;15.55;53.00;94441.56;5082567;28;20089;-72
2022/05/05 08:52:00;;;;;;;24.98;12.10;;;;;;;15.61;52.82;94435.69;5085212;28;20326;-72
2022/05/05 08:54:31;;;;;;;31.48;13.90;;;;;;;15.63;50.87;94435.31;5086081;28;20016;-72
2022/05/05 08:56:56;;;;;;;24.73;12.85;;;;;;;15.67;50.77;94438.91;5086174;28;20016;-73
2022/05/05 08:59:22;;;;;;;18.75;10.32;;;;;;;15.72;49.95;94430.69;5086040;28;20043;-73
2022/05/05 09:01:49;;;;;;;24.63;10.30;;;;;;;15.88;50.07;94424.72;5085885;28;20024;-72
2022/05/05 09:04:14;;;;;;;35.60;9.98;;;;;;;16.00;50.53;94428.19;5086064;28;20071;-72
2022/05/05 09:06:46;;;;;;;20.75;7.18;;;;;;;16.16;48.01;94427.53;5086183;28;20016;-72
2022/05/05 09:09:29;;;;;;;18.45;7.55;;;;;;;16.16;46.13;94425.66;5086096;28;20043;-72
2022/05/05 09:12:14;;;;;;;20.02;8.00;;;;;;;16.28;46.72;94432.94;5085808;28;20156;-72
2022/05/05 09:14:48;;;;;;;19.02;8.30;;;;;;;16.34;48.07;94430.81;5068100;28;20038;-73
2022/05/05 09:17:22;;;;;;;21.73;8.43;;;;;;;16.40;48.43;94426.78;5085556;28;20021;-72
2022/05/05 09:19:52;;;;;;;19.67;9.30;;;;;;;16.54;49.33;94426.44;5085881;28;20032;-73
2022/05/05 09:22:20;;;;;;;20.52;7.35;;;;;;;16.69;46.84;94422.28;5085579;28;20028;-73
2022/05/05 09:24:51;;;;;;;18.02;7.15;;;;;;;16.83;46.69;94415.47;5085514;28;20219;-72
2022/05/05 09:27:32;;;;;;;17.08;7.30;;;;;;;17.01;46.76;94421.38;5085862;28;20016;-71
2022/05/05 09:30:01;;;;;;;14.10;7.00;;;;;;;17.17;45.01;94412.59;5085522;28;20210;-72
2022/05/05 09:32:37;;;;;;;12.73;6.43;;;;;;;17.27;43.36;94412.13;5085648;28;20092;-72
2022/05/05 09:35:13;;;;;;;9.43;4.40;;;;;;;17.28;41.25;94421.78;5085512;28;20032;-73
2022/05/05 09:37:47;;;;;;;10.75;4.05;;;;;;;17.44;40.94;94411.03;5084738;28;20035;-73
2022/05/05 09:40:17;;;;;;;8.98;3.35;;;;;;;17.57;40.36;94414.50;5083583;28;20039;-73
2022/05/05 09:42:47;;;;;;;15.32;4.82;;;;;;;17.71;38.71;94416.75;5083740;28;20029;-72
2022/05/05 09:45:39;;;;;;;13.20;6.00;;;;;;;17.65;39.83;94421.63;5067347;28;20032;-72
2022/05/05 09:48:06;;;;;;;9.57;5.53;;;;;;;17.60;40.52;94411.09;5081797;28;20062;-73
2022/05/05 09:50:33;;;;;;;11.25;5.88;;;;;;;17.69;39.71;94417.13;5084839;28;20024;-71
2022/05/05 09:58:35;;;;;;;14.70;5.25;;;;;;;17.87;39.96;94403.34;5084845;28;20101;-73
2022/05/05 10:01:05;;;;;;;14.32;5.35;;;;;;;17.93;40.46;94396.56;5084693;28;20017;-71
2022/05/05 10:04:00;;;;;;;12.05;5.38;;;;;;;18.07;39.54;94396.94;5066954;28;20034;-72
2022/05/05 10:06:41;;;;;;;13.82;5.20;;;;;;;18.20;40.63;94398.44;5084818;28;20017;-73
2022/05/05 10:09:12;;;;;;;8.80;4.20;;;;;;;18.39;38.29;94396.94;5084518;28;20028;-73
2022/05/05 10:11:39;;;;;;;5.93;3.10;;;;;;;18.55;37.91;94395.00;5066760;28;20028;-72
2022/05/05 10:14:09;;;;;;;9.88;3.10;;;;;;;18.72;37.93;94396.53;5084429;28;20025;-73
2022/05/05 10:16:39;;;;;;;10.05;4.15;;;;;;;18.87;38.47;94391.50;5084652;28;20021;-74
2022/05/05 10:19:06;;;;;;;6.38;3.88;;;;;;;18.97;39.05;94397.16;5084388;28;20020;-72
2022/05/05 10:21:54;;;;;;;9.20;3.90;;;;;;;19.18;38.41;94404.13;5084416;28;20143;-72
2022/05/05 10:24:24;;;;;;;8.18;3.72;;;;;;;19.30;37.11;94406.72;5084251;28;20333;-73
2022/05/05 10:26:52;;;;;;;7.55;3.10;;;;;;;19.45;36.58;94399.66;5084388;28;20041;-72
2022/05/05 10:29:43;;;;;;;7.10;2.90;;;;;;;19.63;35.63;94397.31;5084236;28;20024;-72
2022/05/05 10:32:12;;;;;;;7.18;3.42;;;;;;;19.71;36.17;94395.56;5084250;28;20084;-73
2022/05/05 10:34:45;;;;;;;8.10;3.65;;;;;;;19.77;35.88;94404.94;5084328;28;20035;-72
2022/05/05 10:37:17;;;;;;;22.13;3.63;;;;;;;19.81;35.46;94406.56;5084390;28;20063;-73
2022/05/05 10:39:49;;;;;;;;;;;;;;;19.90;34.85;94400.91;5085058;28;20039;-77
2022/05/05 10:42:19;;;;;;;5.68;3.08;;;;;;;20.00;35.72;94405.75;5084284;28;20139;-75
2022/05/05 10:45:09;;;;;;;5.57;2.92;;;;;;;20.09;33.52;94394.69;5083901;28;20032;-77
2022/05/05 10:48:04;;;;;;;4.68;2.45;;;;;;;20.15;32.67;94397.88;5083526;28;20331;-77
2022/05/05 10:50:33;;;;;;;4.28;2.50;;;;;;;20.08;33.80;94398.53;5082194;28;20223;-76
2022/05/05 10:52:59;;;;;;;8.85;2.63;;;;;;;20.14;34.48;94390.91;5083544;28;20020;-76
2022/05/05 10:55:40;;;;;;;4.28;2.30;;;;;;;20.28;34.26;94396.56;5083640;28;20024;-76
2022/05/05 10:58:09;;;;;;;6.35;2.60;;;;;;;20.32;32.07;94402.81;5083546;28;20279;-76
2022/05/05 11:00:43;;;;;;;4.93;2.53;;;;;;;20.39;33.16;94396.72;5083925;28;20269;-77
2022/05/05 11:03:11;;;;;;;4.90;2.03;;;;;;;20.51;33.53;94401.94;5083422;28;20024;-76
2022/05/05 11:05:38;;;;;;;10.10;2.38;;;;;;;20.75;31.84;94395.38;5083430;28;20031;-74
2022/05/05 11:08:09;;;;;;;3.92;1.95;;;;;;;20.97;31.95;94404.59;5083227;28;20036;-75
2022/05/05 11:10:41;;;;;;;5.70;2.27;;;;;;;21.01;31.80;94396.53;5083469;28;20027;-76
2022/05/05 11:13:07;;;;;;;7.88;1.90;;;;;;;21.09;31.68;94400.91;5082736;28;20281;-76
2022/05/05 11:21:32;;;;;;;6.40;2.30;;;;;;;21.34;30.50;94384.94;5083128;28;20242;-75
2022/05/05 11:24:00;;;;;;;4.53;1.90;;;;;;;21.60;31.74;94394.97;5083170;28;20020;-76
2022/05/05 11:26:26;;;;;;;5.88;1.77;;;;;;;21.87;31.18;94394.88;5082904;28;20091;-76
2022/05/05 11:28:52;;;;;;;3.33;1.80;;;;;;;22.02;30.34;94395.78;5083073;28;20050;-75
2022/05/05 11:31:30;;;;;;;4.53;1.95;;;;;;;22.35;30.09;94399.63;5082879;28;20017;-76
2022/05/05 11:34:01;;;;;;;3.42;1.48;;;;;;;22.64;30.04;94403.34;5064892;28;20204;-76
2022/05/05 11:36:29;;;;;;;18.08;1.83;;;;;;;22.86;26.25;94395.34;5082903;28;20035;-75
2022/05/05 11:38:55;;;;;;;3.92;1.58;;;;;;;23.00;25.90;94398.16;5082615;28;20023;-76
2022/05/05 11:41:21;;;;;;;4.38;1.60;;;;;;;23.00;26.47;94404.38;5082554;28;20016;-75
2022/05/05 11:46:32;;;;;;;3.40;1.85;;;;;;;22.35;26.87;94396.91;5082695;28;20043;-76
2022/05/05 11:48:57;;;;;;;4.00;1.58;;;;;;;21.93;29.45;94392.63;5082690;28;20020;-74
2022/05/05 11:51:26;;;;;;;3.35;2.00;;;;;;;22.10;31.79;94392.00;5082567;28;20061;-75
2022/05/05 11:54:25;;;;;;;2.47;1.30;;;;;;;22.43;30.08;94382.25;5082719;28;20059;-75
2022/05/05 11:56:53;;;;;;;5.45;1.95;;;;;;;22.65;29.60;94383.16;5049886;28;20059;-75
2022/05/05 12:02:18;;;;;;;5.63;1.65;;;;;;;23.06;26.50;94380.38;5082491;28;20027;-74
2022/05/05 12:04:45;;;;;;;7.38;2.00;;;;;;;23.00;27.61;94371.75;5082905;28;20040;-76
2022/05/05 12:07:19;;;;;;;6.85;1.45;;;;;;;23.12;28.95;94378.06;5082909;28;20016;-74
2022/05/05 12:09:45;;;;;;;6.78;1.80;;;;;;;23.37;29.55;94378.97;5082890;28;20257;-75
2022/05/05 12:12:12;;;;;;;7.63;2.10;;;;;;;23.66;27.81;94372.84;5082569;28;20032;-75